createdAt,value
2023-02-09T00:01:19.954Z,46.00
2023-02-09T00:03:48.910Z,46.28
2023-02-09T00:06:20.004Z,53.97
2023-02-09T00:08:48.250Z,49.88
2023-02-09T00:12:10.749Z,48.95
2023-02-09T00:14:40.455Z,41.20
2023-02-09T00:17:13.157Z,55.10
2023-02-09T00:19:48.782Z,53.70
2023-02-09T00:22:17.379Z,52.58
2023-02-09T00:24:45.650Z,55.10
2023-02-09T00:27:14.258Z,49.35
2023-02-09T00:29:42.913Z,42.15
2023-02-09T00:32:11.443Z,56.97
2023-02-09T00:34:41.099Z,55.83
2023-02-09T00:37:09.067Z,55.58
2023-02-09T00:39:37.976Z,46.15
2023-02-09T00:42:07.864Z,49.03
2023-02-09T00:44:40.153Z,53.17
2023-02-09T00:47:09.385Z,63.17
2023-02-09T00:49:40.234Z,50.00
2023-02-09T00:52:09.888Z,52.90
2023-02-09T00:54:38.550Z,50.50
2023-02-09T00:57:07.454Z,57.40
2023-02-09T00:59:35.965Z,59.15
2023-02-09T01:02:04.627Z,54.55
2023-02-09T01:04:33.375Z,64.80
2023-02-09T01:07:03.800Z,74.68
2023-02-09T01:09:33.513Z,68.97
2023-02-09T01:12:05.653Z,60.13
2023-02-09T01:14:41.163Z,50.88
2023-02-09T01:17:09.205Z,59.20
2023-02-09T01:19:37.294Z,61.33
2023-02-09T01:22:05.694Z,58.88
2023-02-09T01:24:34.828Z,49.50
2023-02-09T01:27:03.005Z,50.63
2023-02-09T01:29:33.670Z,53.00
2023-02-09T01:32:01.724Z,49.78
2023-02-09T01:34:31.502Z,59.80
2023-02-09T01:37:01.813Z,53.83
2023-02-09T01:39:54.968Z,59.17
2023-02-09T01:42:23.305Z,53.17
2023-02-09T01:45:22.921Z,55.97
2023-02-09T01:47:55.793Z,62.58
2023-02-09T01:50:25.773Z,60.88
2023-02-09T01:52:53.913Z,64.03
2023-02-09T01:55:24.806Z,66.22
2023-02-09T01:58:10.436Z,63.95
2023-02-09T02:00:38.754Z,72.53
2023-02-09T02:03:10.124Z,80.47
2023-02-09T02:05:39.478Z,80.45
2023-02-09T02:08:23.883Z,65.40
2023-02-09T02:10:52.750Z,53.75
2023-02-09T02:13:20.868Z,42.70
2023-02-09T02:16:27.426Z,38.95
2023-02-09T02:19:23.695Z,51.60
2023-02-09T02:21:57.481Z,44.90
2023-02-09T02:25:34.349Z,51.13
2023-02-09T02:28:28.962Z,44.63
2023-02-09T02:31:10.506Z,33.00
2023-02-09T02:34:10.586Z,44.53
2023-02-09T02:37:09.962Z,51.47
2023-02-09T02:39:56.135Z,50.28
2023-02-09T02:42:49.802Z,46.45
2023-02-09T02:45:36.806Z,36.90
2023-02-09T02:48:19.727Z,44.90
2023-02-09T02:50:58.228Z,38.78
2023-02-09T02:53:28.791Z,44.40
2023-02-09T02:56:19.004Z,45.10
2023-02-09T02:58:48.977Z,38.28
2023-02-09T03:01:18.696Z,45.72
2023-02-09T03:03:46.692Z,39.58
2023-02-09T03:06:15.049Z,45.30
2023-02-09T03:08:51.303Z,40.13
2023-02-09T03:11:20.647Z,47.90
2023-02-09T03:14:03.672Z,42.17
2023-02-09T03:16:38.281Z,42.20
2023-02-09T03:19:33.808Z,49.70
2023-02-09T03:22:06.774Z,40.25
2023-02-09T03:24:43.457Z,37.90
2023-02-09T03:27:19.191Z,33.15
2023-02-09T03:29:50.007Z,47.50
2023-02-09T03:32:18.944Z,47.38
2023-02-09T03:34:46.966Z,44.13
2023-02-09T03:37:14.956Z,48.00
2023-02-09T03:39:44.309Z,44.97
2023-02-09T03:42:12.622Z,44.50
2023-02-09T03:44:40.539Z,40.60
2023-02-09T03:47:09.899Z,40.58
2023-02-09T03:49:40.229Z,45.63
2023-02-09T03:52:10.147Z,40.05
2023-02-09T03:54:40.358Z,50.60
2023-02-09T03:57:08.566Z,35.38
2023-02-09T03:59:37.856Z,45.88
2023-02-09T04:02:07.894Z,53.95
2023-02-09T04:04:36.358Z,51.78
2023-02-09T04:07:04.645Z,64.25
2023-02-09T04:09:33.395Z,62.72
2023-02-09T04:12:02.413Z,81.00
2023-02-09T04:14:31.817Z,73.13
2023-02-09T04:17:01.880Z,80.70
2023-02-09T04:19:30.223Z,65.82
2023-02-09T04:22:00.264Z,76.18
2023-02-09T04:24:29.961Z,89.03
2023-02-09T04:26:58.092Z,87.43
2023-02-09T04:29:26.430Z,88.70
2023-02-09T04:31:54.901Z,86.45
2023-02-09T04:34:24.702Z,89.88
2023-02-09T04:36:52.767Z,87.22
2023-02-09T04:39:20.637Z,75.10
2023-02-09T04:41:48.568Z,87.28
2023-02-09T04:44:16.498Z,78.50
2023-02-09T04:46:45.742Z,86.30
2023-02-09T04:49:15.497Z,92.47
2023-02-09T04:51:43.923Z,71.00
2023-02-09T04:54:13.639Z,88.72
2023-02-09T04:56:44.490Z,89.78
2023-02-09T04:59:31.871Z,87.82
2023-02-09T05:02:02.126Z,95.65
2023-02-09T05:04:31.016Z,81.82
2023-02-09T05:07:10.667Z,78.88
2023-02-09T05:09:39.778Z,67.57
2023-02-09T05:12:12.233Z,63.80
2023-02-09T05:14:40.214Z,72.55
2023-02-09T05:17:08.264Z,63.50
2023-02-09T05:19:37.486Z,64.60
2023-02-09T05:22:05.649Z,68.90
2023-02-09T05:24:34.842Z,55.40
2023-02-09T05:27:03.885Z,62.47
2023-02-09T05:29:32.740Z,51.40
2023-02-09T05:32:00.702Z,46.17
2023-02-09T05:34:29.695Z,49.75
2023-02-09T05:36:57.848Z,48.78
2023-02-09T05:39:58.868Z,49.80
2023-02-09T05:42:28.393Z,44.40
2023-02-09T05:44:57.734Z,52.05
2023-02-09T05:47:25.844Z,43.78
2023-02-09T05:49:56.111Z,41.28
2023-02-09T05:52:24.861Z,46.92
2023-02-09T05:54:52.876Z,43.30
2023-02-09T05:57:27.907Z,52.55
2023-02-09T06:00:01.289Z,43.60
2023-02-09T06:02:40.903Z,41.80
2023-02-09T06:05:48.371Z,44.13
2023-02-09T06:08:17.262Z,48.92
2023-02-09T06:10:48.667Z,37.92
2023-02-09T06:13:16.834Z,37.08
2023-02-09T06:15:44.887Z,48.67
2023-02-09T06:18:13.319Z,53.47
2023-02-09T06:20:41.903Z,56.42
2023-02-09T06:23:10.890Z,44.13
2023-02-09T06:25:40.266Z,53.15
2023-02-09T06:28:09.817Z,55.58
2023-02-09T06:30:38.873Z,58.28
2023-02-09T06:33:42.048Z,43.67
2023-02-09T06:36:14.119Z,55.63
2023-02-09T06:38:45.862Z,47.92
2023-02-09T06:41:13.893Z,47.83
2023-02-09T06:43:43.652Z,55.28
2023-02-09T06:50:51.841Z,52.67
2023-02-09T06:53:41.206Z,59.78
2023-02-09T06:56:10.369Z,51.28
2023-02-09T06:58:44.218Z,47.88
2023-02-09T07:01:13.436Z,54.08
2023-02-09T07:03:44.121Z,50.00
2023-02-09T07:06:14.982Z,46.78
2023-02-09T07:08:44.560Z,57.38
2023-02-09T07:11:17.545Z,54.33
2023-02-09T07:13:47.134Z,67.38
2023-02-09T07:16:15.844Z,56.85
2023-02-09T07:18:45.103Z,43.70
2023-02-09T07:21:20.193Z,50.55
2023-02-09T07:23:48.321Z,41.78
2023-02-09T07:26:17.382Z,56.15
2023-02-09T07:28:46.575Z,63.08
2023-02-09T07:31:19.296Z,54.05
2023-02-09T07:34:20.294Z,49.63
2023-02-09T07:36:50.590Z,57.83
2023-02-09T07:39:23.252Z,62.97
2023-02-09T07:41:51.973Z,54.67
2023-02-09T07:44:20.134Z,66.75
2023-02-09T07:46:49.041Z,66.45
2023-02-09T07:49:17.482Z,58.65
2023-02-09T07:51:46.554Z,59.28
2023-02-09T07:54:14.638Z,58.03
2023-02-09T07:56:43.365Z,51.67
2023-02-09T07:59:12.982Z,53.92
2023-02-09T08:01:41.310Z,49.10
2023-02-09T08:04:10.978Z,55.95
2023-02-09T08:06:43.215Z,46.42
2023-02-09T08:09:13.363Z,54.05
2023-02-09T08:11:50.474Z,51.97
2023-02-09T08:14:23.999Z,51.33
2023-02-09T08:16:52.672Z,69.72
2023-02-09T08:19:22.934Z,46.47
2023-02-09T08:21:51.101Z,59.40
2023-02-09T08:24:19.907Z,44.72
2023-02-09T08:26:48.028Z,47.97
2023-02-09T08:29:16.908Z,52.75
2023-02-09T08:32:22.579Z,47.28
2023-02-09T08:34:51.490Z,49.28
2023-02-09T08:37:19.350Z,57.78
2023-02-09T08:39:47.430Z,59.40
2023-02-09T08:42:15.914Z,49.55
2023-02-09T08:44:47.255Z,56.17
2023-02-09T08:48:20.538Z,56.97
2023-02-09T08:50:48.660Z,54.10
2023-02-09T08:53:16.896Z,56.85
2023-02-09T08:55:45.132Z,49.97
2023-02-09T08:58:13.453Z,57.00
2023-02-09T09:00:44.008Z,48.40
2023-02-09T09:03:11.994Z,46.60
2023-02-09T09:05:39.848Z,59.15
2023-02-09T09:08:09.765Z,55.60
2023-02-09T09:10:39.911Z,52.40
2023-02-09T09:13:08.228Z,59.70
2023-02-09T09:15:36.479Z,53.70
2023-02-09T09:18:04.900Z,53.50
2023-02-09T09:20:33.714Z,63.38
2023-02-09T09:23:02.589Z,56.33
2023-02-09T09:25:35.445Z,56.63
2023-02-09T09:28:03.511Z,52.60
2023-02-09T09:30:32.046Z,52.70
2023-02-09T09:33:01.144Z,53.50
2023-02-09T09:35:32.557Z,57.10
2023-02-09T09:38:01.003Z,51.47
2023-02-09T09:40:32.204Z,48.08
2023-02-09T09:43:06.320Z,49.78
2023-02-09T09:45:35.604Z,41.35
2023-02-09T09:48:06.191Z,42.15
2023-02-09T09:50:39.375Z,47.78
2023-02-09T09:53:22.662Z,40.88
2023-02-09T09:55:56.695Z,42.03
2023-02-09T09:58:25.048Z,42.75
2023-02-09T10:00:54.967Z,47.80
2023-02-09T10:03:23.846Z,48.92
2023-02-09T10:05:56.833Z,50.10
2023-02-09T10:08:48.969Z,38.22
2023-02-09T10:11:18.603Z,35.88
2023-02-09T10:13:55.694Z,42.63
2023-02-09T10:16:28.034Z,47.45
2023-02-09T10:19:01.922Z,40.97
2023-02-09T10:21:34.482Z,42.20
2023-02-09T10:24:14.858Z,44.28
2023-02-09T10:26:44.557Z,47.22
2023-02-09T10:29:14.047Z,32.85
2023-02-09T10:31:44.896Z,43.15
2023-02-09T10:34:18.578Z,41.90
2023-02-09T10:36:51.445Z,39.92
2023-02-09T10:39:30.764Z,46.92
2023-02-09T10:42:12.369Z,36.30
2023-02-09T10:44:41.168Z,29.90
2023-02-09T10:47:29.149Z,28.55
2023-02-09T10:50:18.752Z,28.48
2023-02-09T10:52:58.463Z,29.05
2023-02-09T10:55:36.179Z,38.65
2023-02-09T10:58:07.298Z,32.20
2023-02-09T11:00:58.058Z,39.85
2023-02-09T11:03:26.137Z,33.00
2023-02-09T11:06:08.334Z,31.90
2023-02-09T11:08:46.072Z,35.00
2023-02-09T11:11:31.452Z,28.98
2023-02-09T11:14:00.540Z,36.08
2023-02-09T11:16:49.874Z,29.05
2023-02-09T11:19:22.898Z,31.52
2023-02-09T11:22:28.845Z,31.13
2023-02-09T11:25:49.969Z,30.13
2023-02-09T11:28:37.719Z,36.40
2023-02-09T11:31:22.189Z,29.95
2023-02-09T11:34:00.582Z,34.10
2023-02-09T11:37:04.282Z,26.60
2023-02-09T11:39:43.829Z,33.38
2023-02-09T11:42:34.582Z,35.72
2023-02-09T11:45:09.069Z,28.27
2023-02-09T11:47:51.131Z,34.38
2023-02-09T11:50:28.287Z,26.80
2023-02-09T11:52:59.795Z,30.02
2023-02-09T11:55:32.708Z,29.55
2023-02-09T11:58:19.200Z,32.22
2023-02-09T12:03:36.304Z,28.55
2023-02-09T12:06:05.344Z,22.35
2023-02-09T12:08:47.029Z,28.90
2023-02-09T12:11:20.726Z,30.45
2023-02-09T12:14:35.351Z,25.35
2023-02-09T12:17:34.760Z,24.02
2023-02-09T12:22:38.432Z,22.83
2023-02-09T12:28:12.677Z,26.17
2023-02-09T12:30:40.895Z,28.10
2023-02-09T12:33:24.500Z,30.92
2023-02-09T12:36:05.542Z,31.58
2023-02-09T12:38:56.556Z,36.58
2023-02-09T12:41:41.135Z,38.60
2023-02-09T12:44:27.606Z,35.90
2023-02-09T12:46:58.265Z,31.95
2023-02-09T12:49:29.268Z,30.10
2023-02-09T12:52:01.241Z,28.33
2023-02-09T12:54:57.602Z,31.73
2023-02-09T12:57:27.157Z,32.50
2023-02-09T12:59:59.245Z,30.25
2023-02-09T13:02:37.462Z,30.80
2023-02-09T13:05:23.525Z,30.23
2023-02-09T13:08:28.878Z,34.95
2023-02-09T13:10:57.950Z,34.65
2023-02-09T13:13:32.363Z,34.85
2023-02-09T13:16:13.706Z,38.55
2023-02-09T13:18:48.968Z,36.67
2023-02-09T13:21:47.207Z,34.20
2023-02-09T13:24:40.468Z,34.13
2023-02-09T13:27:43.613Z,30.42
2023-02-09T13:30:49.863Z,32.13
2023-02-09T13:33:40.184Z,30.37
2023-02-09T13:36:24.992Z,33.40
2023-02-09T13:38:54.785Z,28.85
2023-02-09T13:41:29.284Z,30.90
2023-02-09T13:43:57.357Z,32.35
2023-02-09T13:46:27.734Z,27.02
2023-02-09T13:48:55.747Z,31.92
2023-02-09T13:51:24.951Z,30.65
2023-02-09T13:54:01.088Z,30.20
2023-02-09T13:56:31.558Z,32.13
2023-02-09T13:58:59.946Z,30.17
2023-02-09T14:01:30.438Z,33.58
2023-02-09T14:04:15.531Z,37.58
2023-02-09T14:06:45.585Z,33.78
2023-02-09T14:09:29.366Z,44.58
2023-02-09T14:12:04.187Z,37.53
2023-02-09T14:14:59.183Z,44.17
2023-02-09T14:17:31.891Z,40.45
2023-02-09T14:20:00.237Z,43.20
2023-02-09T14:22:35.737Z,41.00
2023-02-09T14:25:15.912Z,39.03
2023-02-09T14:27:47.620Z,35.15
2023-02-09T14:30:25.888Z,37.13
2023-02-09T14:32:54.569Z,41.35
2023-02-09T14:35:40.322Z,39.15
2023-02-09T14:38:38.132Z,39.65
2023-02-09T14:41:38.103Z,41.58
2023-02-09T14:44:09.326Z,42.63
2023-02-09T14:47:00.509Z,42.58
2023-02-09T14:49:29.632Z,36.30
2023-02-09T14:52:03.463Z,42.83
2023-02-09T14:54:33.679Z,35.95
2023-02-09T14:57:03.893Z,38.72
2023-02-09T14:59:32.177Z,46.90
2023-02-09T15:02:02.403Z,47.40
2023-02-09T15:04:30.426Z,45.05
2023-02-09T15:07:01.579Z,46.20
2023-02-09T15:09:32.596Z,51.83
2023-02-09T15:12:05.963Z,47.92
2023-02-09T15:14:47.662Z,51.05
2023-02-09T15:17:25.718Z,52.75
2023-02-09T15:19:54.416Z,49.35
2023-02-09T15:22:23.570Z,51.08
2023-02-09T15:24:54.341Z,55.30
2023-02-09T15:28:00.913Z,48.72
2023-02-09T15:30:33.875Z,45.72
2023-02-09T15:33:06.369Z,51.53
2023-02-09T15:35:34.450Z,50.80
2023-02-09T15:38:02.516Z,51.40
2023-02-09T15:41:06.182Z,48.50
2023-02-09T15:43:53.473Z,53.47
2023-02-09T15:46:42.192Z,54.95
2023-02-09T15:49:11.170Z,53.58
2023-02-09T15:51:39.491Z,54.33
2023-02-09T15:54:44.676Z,49.22
2023-02-09T15:57:18.805Z,50.03
2023-02-09T15:59:48.379Z,51.42
2023-02-09T16:02:17.238Z,49.67
2023-02-09T16:04:47.947Z,47.53
2023-02-09T16:07:20.829Z,42.90
2023-02-09T16:09:49.100Z,45.97
2023-02-09T16:12:19.132Z,43.75
2023-02-09T16:14:53.237Z,47.35
2023-02-09T16:17:22.184Z,40.70
2023-02-09T16:19:50.198Z,45.13
2023-02-09T16:22:22.793Z,46.42
2023-02-09T16:24:50.925Z,47.17
2023-02-09T16:27:53.856Z,55.75
2023-02-09T16:30:26.616Z,45.10
2023-02-09T16:32:55.672Z,47.17
2023-02-09T16:35:25.509Z,47.35
2023-02-09T16:37:53.743Z,45.83
2023-02-09T16:40:33.133Z,42.50
2023-02-09T16:43:03.813Z,49.75
2023-02-09T16:45:32.771Z,49.53
2023-02-09T16:48:00.959Z,50.92
2023-02-09T16:50:33.214Z,46.28
2023-02-09T16:53:03.251Z,50.30
2023-02-09T16:55:42.222Z,43.08
2023-02-09T16:59:24.062Z,48.80
2023-02-09T17:01:52.177Z,35.42
2023-02-09T17:04:20.319Z,29.33
2023-02-09T17:06:50.724Z,27.95
2023-02-09T17:09:19.572Z,32.28
2023-02-09T17:11:49.425Z,26.20
2023-02-09T17:14:17.920Z,23.77
2023-02-09T17:16:49.745Z,26.95
2023-02-09T17:19:18.497Z,36.55
2023-02-09T17:21:47.994Z,29.02
2023-02-09T17:24:18.017Z,33.50
2023-02-09T17:26:53.724Z,33.78
2023-02-09T17:29:22.229Z,33.60
2023-02-09T17:31:53.670Z,32.35
2023-02-09T17:34:27.248Z,37.55
2023-02-09T17:36:56.402Z,44.65
2023-02-09T17:39:25.541Z,43.35
2023-02-09T17:41:57.467Z,41.28
2023-02-09T17:44:45.473Z,38.63
2023-02-09T17:47:18.220Z,47.00
2023-02-09T17:49:46.649Z,46.83
2023-02-09T17:52:19.524Z,41.58
2023-02-09T17:54:47.876Z,35.20
2023-02-09T17:57:16.537Z,31.77
2023-02-09T17:59:46.071Z,35.20
2023-02-09T18:02:20.672Z,36.67
2023-02-09T18:04:48.785Z,36.10
2023-02-09T18:07:20.760Z,34.15
2023-02-09T18:09:54.685Z,36.00
2023-02-09T18:12:26.500Z,36.03
2023-02-09T18:14:57.250Z,34.88
2023-02-09T18:17:26.634Z,40.78
2023-02-09T18:19:57.150Z,32.70
2023-02-09T18:22:26.784Z,31.27
2023-02-09T18:25:01.618Z,40.58
2023-02-09T18:27:29.948Z,40.00
2023-02-09T18:29:58.413Z,43.92
2023-02-09T18:32:26.651Z,37.30
2023-02-09T18:34:55.483Z,37.30
2023-02-09T18:37:24.294Z,34.67
2023-02-09T18:39:53.089Z,38.92
2023-02-09T18:42:25.764Z,44.80
2023-02-09T18:44:54.589Z,32.75
2023-02-09T18:47:23.609Z,34.58
2023-02-09T18:49:53.031Z,32.60
2023-02-09T18:52:54.343Z,34.28
2023-02-09T18:55:55.106Z,34.25
2023-02-09T18:58:25.364Z,37.47
2023-02-09T19:00:56.786Z,36.80
2023-02-09T19:03:25.841Z,28.45
2023-02-09T19:05:57.631Z,31.33
2023-02-09T19:08:29.202Z,33.15
2023-02-09T19:10:57.281Z,34.42
2023-02-09T19:13:25.683Z,32.22
2023-02-09T19:15:54.981Z,34.17
2023-02-09T19:18:27.701Z,31.35
2023-02-09T19:20:57.451Z,37.33
2023-02-09T19:23:35.454Z,33.70
2023-02-09T19:26:05.467Z,30.67
2023-02-09T19:28:36.112Z,29.15
2023-02-09T19:31:04.410Z,50.35
2023-02-09T19:33:32.640Z,73.40
2023-02-09T19:36:01.446Z,95.05
2023-02-09T19:38:30.564Z,147.80
2023-02-09T19:41:10.328Z,162.68
2023-02-09T19:43:41.108Z,195.95
2023-02-09T19:46:14.209Z,204.82
2023-02-09T19:48:44.409Z,222.10
2023-02-09T19:51:13.031Z,219.95
2023-02-09T19:54:08.106Z,166.00
2023-02-09T19:56:37.562Z,165.00
2023-02-09T19:59:10.441Z,190.63
2023-02-09T20:01:39.796Z,181.10
2023-02-09T20:04:11.273Z,161.15
2023-02-09T20:06:45.272Z,160.65
2023-02-09T20:09:16.727Z,153.85
2023-02-09T20:11:44.722Z,146.80
2023-02-09T20:14:12.760Z,118.05
2023-02-09T20:16:41.093Z,100.78
2023-02-09T20:19:10.028Z,136.25
2023-02-09T20:21:39.971Z,164.68
2023-02-09T20:24:11.679Z,176.38
2023-02-09T20:26:39.969Z,160.30
2023-02-09T20:29:08.655Z,128.27
2023-02-09T20:31:38.416Z,107.20
2023-02-09T20:34:07.426Z,95.55
2023-02-09T20:36:36.762Z,96.43
2023-02-09T20:39:07.198Z,97.47
2023-02-09T20:41:39.224Z,117.15
2023-02-09T20:44:26.119Z,109.25
2023-02-09T20:46:57.330Z,160.77
2023-02-09T20:49:37.160Z,169.75
2023-02-09T20:52:07.187Z,173.07
2023-02-09T20:54:37.102Z,174.77
2023-02-09T20:57:07.446Z,160.88
2023-02-09T20:59:38.885Z,162.32
2023-02-09T21:02:07.568Z,153.68
2023-02-09T21:04:40.814Z,145.02
2023-02-09T21:07:09.565Z,148.77
2023-02-09T21:09:43.330Z,133.63
2023-02-09T21:12:14.469Z,117.68
2023-02-09T21:14:45.326Z,124.57
2023-02-09T21:17:15.637Z,118.53
2023-02-09T21:19:47.827Z,138.10
2023-02-09T21:22:17.193Z,128.10
2023-02-09T21:24:45.551Z,150.38
2023-02-09T21:27:15.173Z,150.40
2023-02-09T21:29:44.480Z,136.65
2023-02-09T21:32:12.785Z,128.68
2023-02-09T21:34:43.688Z,140.93
2023-02-09T21:37:13.193Z,125.72
2023-02-09T21:39:48.872Z,137.40
2023-02-09T21:42:27.455Z,119.70
2023-02-09T21:45:04.084Z,114.80
2023-02-09T21:47:35.062Z,121.97
2023-02-09T21:50:03.921Z,117.18
2023-02-09T21:52:34.757Z,124.63
2023-02-09T21:55:44.515Z,112.10
2023-02-09T21:58:55.415Z,124.20
2023-02-09T22:01:24.075Z,105.10
2023-02-09T22:03:57.597Z,118.90
2023-02-09T22:06:26.528Z,107.57
2023-02-09T22:08:56.331Z,99.07
2023-02-09T22:11:24.846Z,111.57
2023-02-09T22:13:53.079Z,92.05
2023-02-09T22:16:55.040Z,104.70
2023-02-09T22:19:23.843Z,88.53
2023-02-09T22:21:52.972Z,91.00
2023-02-09T22:24:35.150Z,105.38
2023-02-09T22:27:12.636Z,91.63
2023-02-09T22:29:40.957Z,76.28
2023-02-09T22:32:15.010Z,66.55
2023-02-09T22:34:43.562Z,66.55
2023-02-09T22:37:11.744Z,81.40
2023-02-09T22:39:41.386Z,41.88
2023-02-09T22:42:09.320Z,35.05
2023-02-09T22:44:38.928Z,41.78
2023-02-09T22:47:09.768Z,22.50
2023-02-09T22:49:37.708Z,25.52
2023-02-09T22:52:08.036Z,21.35
2023-02-09T22:54:36.726Z,15.55
2023-02-09T22:57:04.722Z,21.73
2023-02-09T22:59:37.084Z,19.73
2023-02-09T23:02:05.408Z,31.65
2023-02-09T23:04:34.012Z,30.38
2023-02-09T23:07:43.111Z,21.13
2023-02-09T23:10:13.562Z,36.08
2023-02-09T23:12:46.540Z,40.95
2023-02-09T23:15:17.278Z,41.70
2023-02-09T23:17:45.278Z,50.92
2023-02-09T23:20:20.255Z,47.65
2023-02-09T23:22:50.377Z,44.50
2023-02-09T23:25:18.802Z,50.08
2023-02-09T23:27:55.354Z,44.75
2023-02-09T23:30:27.209Z,51.97
2023-02-09T23:32:57.093Z,43.58
2023-02-09T23:35:25.203Z,52.05
2023-02-09T23:37:53.561Z,47.70
2023-02-09T23:40:26.051Z,49.60
2023-02-09T23:43:00.816Z,50.58
2023-02-09T23:45:29.309Z,48.50
2023-02-09T23:47:59.009Z,57.42
2023-02-09T23:50:31.423Z,54.85
2023-02-09T23:53:03.235Z,37.22
2023-02-09T23:55:37.033Z,34.83
2023-02-09T23:58:04.994Z,40.25
